ヤクーツク空港の過去48時間の天気

ヤクーツク空港 (Jakutsk)

現在時刻: 9/23 06:25 +09 (9/22 21:25 UTC) 以下の時間は現地時間です。

過去48時間のMETAR気象情報
時間 風向 風速(m/s) 視程 気温(℃) 湿度(%) 気圧(hPa) 天気現象
23 06:00 南西 1 550m 2 100 1011
23 05:30 南南西 1 400m 2 100 1011
23 05:00 南西 2 600m 2 100 1011
23 04:30 南西 2 900m 2 93 1011
23 04:00 南西 2 5000m 2 93 1011 もや
23 03:30 西 1 5000m 1 100 1011 もや
23 03:00 南西 1 5000m 1 100 1011 もや
23 02:30 静穏 0 5000m 1 100 1011 もや
23 02:00 北西 1 5000m 1 100 1010 もや
23 01:30 2 2400m 2 93 1010 もや
23 01:00 北北西 2 5000m 2 93 1010 もや
23 00:30 北西 2 5000m 2 100 1010 もや
23 00:00 西北西 2 5000m 2 100 1010 もや
22 23:30 西北西 2 5000m 2 100 1010 もや
22 23:00 西北西 3 5000m 2 100 1010 もや
22 22:30 北西 3 5000m 3 93 1010 もや
22 22:00 北北西 2 5000m 3 93 1010 もや
22 21:30 北西 2 2400m 3 93 1010 もや
22 21:00 北西 1 2400m 3 93 1010 もや
22 20:30 北西 2 2400m 3 100 1009 もや
22 20:00 北西 2 2000m 3 100 1009 もや
22 19:30 北西 1 600m 3 100 1009
22 19:00 2 700m 3 100 1009
22 18:30 北北西 1 1100m 4 93 1008 もや
22 18:00 静穏 0 2400m 4 93 1008 弱い霧雨 もや
22 17:30 南南西 1 3200m 4 93 1008 弱い霧雨
22 17:00 1 3200m 4 93 1008 弱い霧雨
22 16:30 南南東 1 3200m 4 93 1007 弱い霧雨
22 16:00 南南東 2 10km以上 4 93 1007 弱い霧雨
22 15:30 南東 2 10km以上 3 100 1007
22 15:00 南東 2 10km以上 3 100 1007 弱いしゅう雨
22 14:30 南東 4 10km以上 3 93 1007
22 14:00 東南東 4 10km以上 3 93 1007 弱いしゅう雨
22 13:30 東南東 4 10km以上 2 100 1007 弱いしゅう雨
22 13:00 東南東 3 10km以上 2 100 1007 弱いしゅう雨
22 12:30 東南東 4 10km以上 2 93 1007 弱いしゅう雨
22 12:00 東南東 3 10km以上 2 93 1008 弱いしゅう雨
22 11:30 東南東 2 10km以上 3 87 1008 弱いしゅう雨
22 11:00 東南東 4 10km以上 3 87 1007
22 10:30 南東 4 10km以上 3 87 1008 弱いしゅう雨
22 10:00 南南東 3 10km以上 2 81 1009 弱いしゅう雨 弱いしゅう雪
22 09:30 2 10km以上 2 81 1009 弱いしゅう雪
22 09:00 静穏 0 10km以上 1 86 1009 弱いしゅう雪
22 08:30 静穏 0 10km以上 1 80 1010
22 08:00 1 10km以上 1 80 1010
22 07:30 南東 3 10km以上 0 86 1010
22 07:00 東南東 3 10km以上 0 86 1010
22 06:30 東南東 2 10km以上 0 93 1010
22 06:00 東南東 1 10km以上 0 86 1010
22 05:30 静穏 0 10km以上 -1 86 1011
22 05:00 南東 1 10km以上 -1 93 1011
22 04:30 東南東 2 10km以上 -1 93 1011
22 04:00 東南東 3 10km以上 -1 93 1011
22 03:30 東南東 2 10km以上 -1 100 1011
22 03:00 南東 2 10km以上 -2 100 1011
22 02:30 東南東 1 10km以上 -3 93 1012
22 02:00 東南東 2 10km以上 -3 93 1012
22 01:30 静穏 0 10km以上 -3 100 1012
22 01:00 1 10km以上 -2 93 1012
22 00:30 東北東 2 10km以上 -2 100 1012
22 00:00 2 10km以上 -1 93 1013
21 23:30 2 10km以上 -1 93 1012
21 23:00 北北西 2 10km以上 -1 100 1013
21 22:30 北北西 3 10km以上 0 93 1013
21 22:00 北北西 3 10km以上 0 93 1013
21 21:30 北北西 3 10km以上 0 93 1013
21 21:00 北北西 3 10km以上 0 93 1013
21 20:30 北北西 3 10km以上 1 86 1013
21 20:00 北北西 2 10km以上 1 93 1013
21 19:30 2 10km以上 2 87 1013
21 19:00 3 10km以上 2 87 1013
21 18:30 3 10km以上 3 81 1012
21 18:00 北北東 3 10km以上 5 75 1012
21 17:30 北北東 3 10km以上 6 70 1012
21 17:00 北北東 3 10km以上 6 70 1012
21 16:30 北東 2 10km以上 6 65 1012
21 16:00 北東 2 10km以上 7 61 1012
21 15:30 1 10km以上 7 61 1012
21 15:00 1 10km以上 6 61 1012
21 14:30 東南東 1 10km以上 6 61 1012
21 14:00 1 10km以上 6 61 1012
21 13:30 2 10km以上 5 65 1012
21 13:00 南南東 2 10km以上 5 65 1012
21 12:30 南南東 2 10km以上 4 70 1012
21 12:00 南南東 3 10km以上 4 70 1012
21 11:30 南東 3 10km以上 4 70 1013
21 11:00 3 10km以上 3 75 1013
21 10:30 南南東 3 10km以上 3 75 1013
21 10:00 南南東 3 10km以上 3 75 1013
21 09:30 4 10km以上 2 81 1013
21 09:00 南南東 3 10km以上 2 87 1014
21 08:30 東南東 2 10km以上 2 87 1014
21 08:00 東南東 2 10km以上 1 93 1014
21 07:30 東南東 2 10km以上 1 93 1014
21 07:00 東南東 1 10km以上 1 93 1014
21 06:30 1 10km以上 1 86 1014
UEEE 222100Z 23001MPS 0550 0450NE R23L/0650U FG BKN004 02/02 Q1011 R23L/290055 NOSIG RMK QBB120 QFE749
UEEE 222030Z 21001MPS 0400 R23L/1000D FG OVC003 02/02 Q1011 R23L/290055 NOSIG RMK QBB090 QFE749
UEEE 222000Z 22002MPS 0600 0500SW R23L/1400D FG OVC003 02/02 Q1011 R23L/290155 NOSIG RMK QBB090 QFE749
UEEE 221930Z 23002MPS 0900 0700SW R23L/1900D FG BKN003 02/01 Q1011 R23L/290155 NOSIG RMK QBB110 QFE749
UEEE 221900Z 23002MPS 5000 BR BKN005 02/01 Q1011 R23L/290155 NOSIG RMK QBB160 QFE749
UEEE 221830Z 27001MPS 5000 BR BKN005 01/01 Q1011 R23L/290155 NOSIG RMK QBB160 QFE749
UEEE 221800Z 22001MPS 5000 BR BKN005 01/01 Q1011 R23L/290155 NOSIG RMK QBB160 QFE749
UEEE 221730Z 00000MPS 5000 BR OVC005 01/01 Q1011 R23L/290155 NOSIG RMK QBB160 QFE749
UEEE 221700Z 32001MPS 5000 BR OVC005 01/01 Q1010 R23L/290155 NOSIG RMK QBB160 QFE749
UEEE 221630Z 36002MPS 2400 BR OVC005 02/01 Q1010 R23L/290155 NOSIG RMK QBB160 QFE749
UEEE 221600Z 33002MPS 5000 BR BKN007 02/01 Q1010 R23L/290155 NOSIG RMK QFE749
UEEE 221530Z 31002MPS 5000 BR BKN007 02/02 Q1010 R23L/290155 NOSIG RMK QFE749
UEEE 221500Z 29002MPS 5000 BR BKN007 02/02 Q1010 R23L/290155 NOSIG RMK QFE749
UEEE 221430Z 30002MPS 250V330 5000 BR BKN007 02/02 Q1010 R23L/290155 NOSIG RMK QFE749
UEEE 221400Z 29003MPS 5000 BR BKN008 02/02 Q1010 R23L/290155 NOSIG RMK QFE749
UEEE 221330Z 32003MPS 5000 BR BKN010 03/02 Q1010 R23L/290155 NOSIG RMK QFE749
UEEE 221300Z 33002MPS 5000 BR BKN011 03/02 Q1010 R23L/290155 NOSIG RMK QFE749
UEEE 221230Z 32002MPS 2400 BR BKN008 03/02 Q1010 R23L/290155 NOSIG RMK QFE749
UEEE 221200Z 32001MPS 2400 BR BKN004 03/02 Q1010 R23L/290155 NOSIG RMK QBB140 QFE748
UEEE 221130Z 32002MPS 2400 BR BKN004 03/03 Q1009 R23L/290155 NOSIG RMK QBB140 QFE748
UEEE 221100Z 31002MPS 2000 1000NE R23L/2000U BR BKN004 03/03 Q1009 R23L/290155 NOSIG RMK QBB120 QFE748
UEEE 221030Z 32001MPS 0600 0550NE R23L/1300D FG VV003 03/03 Q1009 R23L/290155 NOSIG RMK QBB090 QFE748
UEEE 221000Z 35002MPS 0700 0600NE R23L/0800D FG VV003 03/03 Q1009 R23L/290155 NOSIG RMK QBB090 QFE748
UEEE 220930Z 33001MPS 1100 R23L/1200D BR OVC004 04/03 Q1008 R23L/290155 NOSIG RMK QBB120 QFE747
UEEE 220900Z 00000MPS 2400 -DZ BR OVC005 04/03 Q1008 R23L/290155 NOSIG RMK QBB150 QFE747
UEEE 220830Z 20001MPS 3200 -DZ OVC006 04/03 Q1008 R23L/290155 NOSIG RMK QBB180 QFE747
UEEE 220800Z 17001MPS 3200 -DZ OVC007 04/03 Q1008 R23L/290155 NOSIG RMK QFE747
UEEE 220730Z 16001MPS 3200 -DZ OVC007 04/03 Q1007 R23L/290155 NOSIG RMK QFE747
UEEE 220700Z 16002MPS 9999 -DZ OVC008 04/03 Q1007 R23L/290155 NOSIG RMK QFE747
UEEE 220630Z 13002MPS 9999 OVC008 03/03 Q1007 R23L/290155 NOSIG RMK QFE747
UEEE 220600Z 14002MPS 9999 -SHRA SCT009 BKN020CB 03/03 Q1007 R23L/290155 NOSIG RMK QFE747
UEEE 220530Z 14004MPS 9999 SCT009 BKN018CB 03/02 Q1007 R23L/15//55 NOSIG RMK QFE746
UEEE 220500Z 11004MPS 050V130 9999 -SHRA SCT009 BKN018CB 03/02 Q1007 R23L/15//55 NOSIG RMK QFE747
UEEE 220430Z 12004MPS 9999 -SHRA SCT009 BKN018CB 02/02 Q1007 R23L/15//55 NOSIG RMK QFE747
UEEE 220400Z 12003MPS 9999 -SHRA SCT009 BKN018CB 02/02 Q1007 R23L/15//55 NOSIG RMK QFE747
UEEE 220330Z 12004MPS 9999 -SHRA SCT018CB 02/01 Q1007 R23L/15//55 NOSIG RMK QFE747
UEEE 220300Z 11003MPS 9999 -SHRA SCT018CB 02/01 Q1008 R23L/15//55 NOSIG RMK QFE747
UEEE 220230Z 12002MPS 9999 -SHRA SCT020CB 03/01 Q1008 R23L/15//55 NOSIG RMK QFE747
UEEE 220200Z 12004MPS 9999 BKN024CB 03/01 Q1007 R23L/15//55 NOSIG RMK QFE747
UEEE 220130Z 13004MPS 100V170 9999 -SHRA BKN024CB 03/01 Q1008 R23L/09//58 NOSIG RMK QFE747
UEEE 220100Z 16003MPS 9999 -SHRASN SCT009 BKN020CB 02/M01 Q1009 R23L/09//58 NOSIG RMK QFE748
UEEE 220030Z 17002MPS 9999 -SHSN SCT009 BKN024CB 02/M01 Q1009 R23L/09//58 NOSIG RMK QFE748
UEEE 220000Z 00000MPS 9999 -SHSN SCT040CB 01/M01 Q1009 R23L/09//58 NOSIG RMK QFE748
UEEE 212330Z 00000MPS CAVOK 01/M02 Q1010 R23L/09//58 NOSIG RMK QFE749
UEEE 212300Z 17001MPS CAVOK 01/M02 Q1010 R23L/09//58 NOSIG RMK QFE749
UEEE 212230Z 14003MPS CAVOK 00/M02 Q1010 R23L/09//58 NOSIG RMK QFE749
UEEE 212200Z 11003MPS CAVOK 00/M02 Q1010 R23L/09//58 NOSIG RMK QFE749
UEEE 212130Z 11002MPS CAVOK 00/M01 Q1010 R23L/09//58 NOSIG RMK QFE749
UEEE 212100Z 12001MPS CAVOK M00/M02 Q1010 R23L/09//58 NOSIG RMK QFE749
UEEE 212030Z 00000MPS CAVOK M01/M03 Q1011 R23L/09//58 NOSIG RMK QFE749
UEEE 212000Z 13001MPS CAVOK M01/M02 Q1011 R23L/09//58 NOSIG RMK QFE749
UEEE 211930Z 12002MPS CAVOK M01/M02 Q1011 R23L/09//58 NOSIG RMK QFE749
UEEE 211900Z 12003MPS CAVOK M01/M02 Q1011 R23L/09//58 NOSIG RMK QFE749
UEEE 211830Z 12002MPS CAVOK M01/M01 Q1011 R23L/09//58 NOSIG RMK QFE750
UEEE 211800Z 13002MPS CAVOK M02/M02 Q1011 R23L/09//58 NOSIG RMK QFE750
UEEE 211730Z 12001MPS CAVOK M03/M04 Q1012 R23L/09//58 NOSIG RMK QFE750
UEEE 211700Z 12002MPS CAVOK M03/M04 Q1012 R23L/09//58 NOSIG RMK QFE750
UEEE 211630Z 00000MPS CAVOK M03/M03 Q1012 R23L/09//58 NOSIG RMK QFE750
UEEE 211600Z 01001MPS CAVOK M02/M03 Q1012 R23L/09//58 NOSIG RMK QFE750
UEEE 211530Z 06002MPS CAVOK M02/M02 Q1012 R23L/09//58 NOSIG RMK QFE751
UEEE 211500Z 35002MPS CAVOK M01/M02 Q1013 R23L/09//58 NOSIG RMK QFE751
UEEE 211430Z 35002MPS CAVOK M01/M02 Q1012 R23L/09//58 NOSIG RMK QFE751
UEEE 211400Z 34002MPS CAVOK M01/M01 Q1013 R23L/09//58 NOSIG RMK QFE751
UEEE 211330Z 34003MPS CAVOK M00/M01 Q1013 R23L/09//58 NOSIG RMK QFE751
UEEE 211300Z 34003MPS CAVOK 00/M01 Q1013 R23L/09//58 NOSIG RMK QFE751
UEEE 211230Z 33003MPS CAVOK 00/M01 Q1013 R23L/09//58 NOSIG RMK QFE751
UEEE 211200Z 34003MPS CAVOK 00/M01 Q1013 R23L/09//58 NOSIG RMK QFE751
UEEE 211130Z 34003MPS CAVOK 01/M01 Q1013 R23L/09//58 NOSIG RMK QFE751
UEEE 211100Z 34002MPS CAVOK 01/M00 Q1013 R23L/09//58 NOSIG RMK QFE751
UEEE 211030Z 35002MPS CAVOK 02/M00 Q1013 R23L/09//58 NOSIG RMK QFE751
UEEE 211000Z 36003MPS CAVOK 02/M00 Q1013 R23L/09//58 NOSIG RMK QFE751
UEEE 210930Z 01003MPS CAVOK 03/00 Q1012 R23L/09//58 NOSIG RMK QFE751
UEEE 210900Z 03003MPS CAVOK 05/01 Q1012 R23L/09//58 NOSIG RMK QFE750
UEEE 210830Z 02003MPS CAVOK 06/01 Q1012 R23L/09//58 NOSIG RMK QFE750
UEEE 210800Z 03003MPS CAVOK 06/01 Q1012 R23L/09//58 NOSIG RMK QFE750
UEEE 210730Z 04002MPS CAVOK 06/M00 Q1012 R23L/09//58 NOSIG RMK QFE750
UEEE 210700Z 04002MPS CAVOK 07/M00 Q1012 R23L/09//58 NOSIG RMK QFE750
UEEE 210630Z 08001MPS CAVOK 07/M00 Q1012 R23L/09//56 NOSIG RMK QFE750
UEEE 210600Z 10001MPS CAVOK 06/M01 Q1012 R23L/09//56 NOSIG RMK QFE750
UEEE 210530Z 11001MPS CAVOK 06/M01 Q1012 R23L/09//56 NOSIG RMK QFE750
UEEE 210500Z 17001MPS CAVOK 06/M01 Q1012 R23L/09//56 NOSIG RMK QFE750
UEEE 210430Z 17002MPS CAVOK 05/M01 Q1012 R23L/09//56 NOSIG RMK QFE750
UEEE 210400Z 16002MPS 120V200 CAVOK 05/M01 Q1012 R23L/09//56 NOSIG RMK QFE750
UEEE 210330Z 16002MPS CAVOK 04/M01 Q1012 R23L/09//56 NOSIG RMK QFE750
UEEE 210300Z 16003MPS CAVOK 04/M01 Q1012 R23L/09//56 NOSIG RMK QFE751
UEEE 210230Z 14003MPS CAVOK 04/M01 Q1013 R23L/09//56 NOSIG RMK QFE751
UEEE 210200Z 17003MPS CAVOK 03/M01 Q1013 R23L/09//56 NOSIG RMK QFE751
UEEE 210130Z 16003MPS CAVOK 03/M01 Q1013 R23L/09//56 NOSIG RMK QFE751
UEEE 210100Z 16003MPS CAVOK 03/M01 Q1013 R23L/09//56 NOSIG RMK QFE751
UEEE 210030Z 17004MPS CAVOK 02/M01 Q1013 R23L/09//56 NOSIG RMK QFE751
UEEE 210000Z 15003MPS CAVOK 02/M00 Q1014 R23L/09//56 NOSIG RMK QFE751
UEEE 202330Z 12002MPS CAVOK 02/M00 Q1014 R23L/09//56 NOSIG RMK QFE751
UEEE 202300Z 11002MPS CAVOK 01/M00 Q1014 R23L/09//56 NOSIG RMK QFE752
UEEE 202230Z 11002MPS CAVOK 01/M00 Q1014 R23L/09//56 NOSIG RMK QFE752
UEEE 202200Z 11001MPS CAVOK 01/M00 Q1014 R23L/09//56 NOSIG RMK QFE752
UEEE 202130Z 17001MPS CAVOK 01/M01 Q1014 R23L/09//56 NOSIG RMK QFE752